sensor_id;sensor_type;location;lat;lon;timestamp;pressure;altitude;pressure_sealevel;temperature;humidity
69127;BME280;56688;50.234;19.292;2023-10-09T00:00:34;99429.58;;;2.06;76.27
69127;BME280;56688;50.234;19.292;2023-10-09T00:03:08;99423.02;;;2.00;76.76
69127;BME280;56688;50.234;19.292;2023-10-09T00:05:36;99421.42;;;1.95;76.63
69127;BME280;56688;50.234;19.292;2023-10-09T00:08:18;99422.09;;;1.93;76.67
69127;BME280;56688;50.234;19.292;2023-10-09T00:10:49;99427.84;;;1.94;76.99
69127;BME280;56688;50.234;19.292;2023-10-09T00:13:22;99430.36;;;1.96;77.22
69127;BME280;56688;50.234;19.292;2023-10-09T00:16:03;99436.77;;;1.92;77.61
69127;BME280;56688;50.234;19.292;2023-10-09T00:18:35;99433.66;;;1.89;77.64
69127;BME280;56688;50.234;19.292;2023-10-09T00:21:02;99422.95;;;1.84;77.93
69127;BME280;56688;50.234;19.292;2023-10-09T00:23:39;99417.05;;;1.78;78.38
69127;BME280;56688;50.234;19.292;2023-10-09T00:26:08;99406.89;;;1.70;78.64
69127;BME280;56688;50.234;19.292;2023-10-09T00:28:51;99403.84;;;1.64;78.76
69127;BME280;56688;50.234;19.292;2023-10-09T00:31:19;99406.14;;;1.61;79.43
69127;BME280;56688;50.234;19.292;2023-10-09T00:33:57;99396.04;;;1.63;79.59
69127;BME280;56688;50.234;19.292;2023-10-09T00:36:43;99390.59;;;1.67;80.05
69127;BME280;56688;50.234;19.292;2023-10-09T00:39:18;99388.27;;;1.76;80.02
69127;BME280;56688;50.234;19.292;2023-10-09T00:42:00;99376.54;;;1.82;79.98
69127;BME280;56688;50.234;19.292;2023-10-09T00:44:27;99360.05;;;1.87;79.47
69127;BME280;56688;50.234;19.292;2023-10-09T00:47:06;99339.50;;;1.89;79.23
69127;BME280;56688;50.234;19.292;2023-10-09T00:50:09;99323.97;;;1.87;78.67
69127;BME280;56688;50.234;19.292;2023-10-09T00:52:50;99321.78;;;1.79;78.40
69127;BME280;56688;50.234;19.292;2023-10-09T00:55:21;99328.08;;;1.73;78.71
69127;BME280;56688;50.234;19.292;2023-10-09T00:57:55;99327.77;;;1.72;78.66
69127;BME280;56688;50.234;19.292;2023-10-09T01:00:26;99316.23;;;1.76;78.57
69127;BME280;56688;50.234;19.292;2023-10-09T01:03:10;99299.21;;;1.78;78.30
69127;BME280;56688;50.234;19.292;2023-10-09T01:05:48;99286.77;;;1.80;78.16
69127;BME280;56688;50.234;19.292;2023-10-09T01:08:31;99307.94;;;1.79;78.79
69127;BME280;56688;50.234;19.292;2023-10-09T01:11:11;99317.94;;;1.77;78.45
69127;BME280;56688;50.234;19.292;2023-10-09T01:13:46;99310.13;;;1.75;78.36
69127;BME280;56688;50.234;19.292;2023-10-09T01:16:13;99314.70;;;1.68;78.47
69127;BME280;56688;50.234;19.292;2023-10-09T01:18:45;99322.80;;;1.58;78.14
69127;BME280;56688;50.234;19.292;2023-10-09T01:21:17;99330.71;;;1.58;78.70
69127;BME280;56688;50.234;19.292;2023-10-09T01:23:47;99331.83;;;1.62;78.72
69127;BME280;56688;50.234;19.292;2023-10-09T01:26:33;99324.89;;;1.61;78.60
69127;BME280;56688;50.234;19.292;2023-10-09T01:29:07;99314.21;;;1.62;78.66
69127;BME280;56688;50.234;19.292;2023-10-09T01:31:42;99318.50;;;1.66;78.52
69127;BME280;56688;50.234;19.292;2023-10-09T01:34:19;99319.90;;;1.69;78.09
69127;BME280;56688;50.234;19.292;2023-10-09T01:36:52;99318.11;;;1.69;78.66
69127;BME280;56688;50.234;19.292;2023-10-09T01:39:23;99314.94;;;1.70;78.20
69127;BME280;56688;50.234;19.292;2023-10-09T01:41:51;99309.12;;;1.70;78.23
69127;BME280;56688;50.234;19.292;2023-10-09T01:44:26;99313.36;;;1.74;78.35
69127;BME280;56688;50.234;19.292;2023-10-09T01:46:54;99327.70;;;1.80;78.96
69127;BME280;56688;50.234;19.292;2023-10-09T01:49:24;99326.81;;;1.87;79.12
69127;BME280;56688;50.234;19.292;2023-10-09T01:51:59;99314.75;;;1.93;79.10
69127;BME280;56688;50.234;19.292;2023-10-09T01:54:28;99311.45;;;1.98;79.08
69127;BME280;56688;50.234;19.292;2023-10-09T01:57:11;99312.39;;;1.99;79.02
69127;BME280;56688;50.234;19.292;2023-10-09T01:59:40;99304.91;;;2.03;79.27
69127;BME280;56688;50.234;19.292;2023-10-09T02:02:11;99301.28;;;2.07;79.12
69127;BME280;56688;50.234;19.292;2023-10-09T02:07:20;99291.69;;;2.22;79.48
69127;BME280;56688;50.234;19.292;2023-10-09T02:09:55;99278.33;;;2.27;79.34
69127;BME280;56688;50.234;19.292;2023-10-09T02:12:22;99279.08;;;2.28;79.35
69127;BME280;56688;50.234;19.292;2023-10-09T02:14:51;99274.87;;;2.31;79.19
69127;BME280;56688;50.234;19.292;2023-10-09T02:17:22;99263.17;;;2.32;79.10
69127;BME280;56688;50.234;19.292;2023-10-09T02:19:55;99258.85;;;2.35;79.37
69127;BME280;56688;50.234;19.292;2023-10-09T02:22:24;99260.75;;;2.38;79.33
69127;BME280;56688;50.234;19.292;2023-10-09T02:24:53;99258.65;;;2.45;79.50
69127;BME280;56688;50.234;19.292;2023-10-09T02:27:31;99244.75;;;2.52;79.72
69127;BME280;56688;50.234;19.292;2023-10-09T02:30:15;99247.34;;;2.59;79.64
69127;BME280;56688;50.234;19.292;2023-10-09T02:32:45;99252.52;;;2.65;79.67
69127;BME280;56688;50.234;19.292;2023-10-09T02:35:16;99252.54;;;2.69;79.37
69127;BME280;56688;50.234;19.292;2023-10-09T02:37:48;99262.48;;;2.70;79.19
69127;BME280;56688;50.234;19.292;2023-10-09T02:40:14;99269.98;;;2.73;79.36
69127;BME280;56688;50.234;19.292;2023-10-09T02:42:58;99270.49;;;2.78;79.62
69127;BME280;56688;50.234;19.292;2023-10-09T02:45:25;99258.85;;;2.85;79.53
69127;BME280;56688;50.234;19.292;2023-10-09T02:47:57;99254.44;;;2.92;79.52
69127;BME280;56688;50.234;19.292;2023-10-09T02:50:26;99253.41;;;2.96;79.21
69127;BME280;56688;50.234;19.292;2023-10-09T02:52:55;99249.19;;;3.00;78.96
69127;BME280;56688;50.234;19.292;2023-10-09T02:55:26;99255.39;;;3.02;78.64
69127;BME280;56688;50.234;19.292;2023-10-09T02:57:55;99260.23;;;3.03;78.90
69127;BME280;56688;50.234;19.292;2023-10-09T03:00:38;99263.33;;;3.04;78.72
69127;BME280;56688;50.234;19.292;2023-10-09T03:03:05;99260.17;;;3.02;78.89
69127;BME280;56688;50.234;19.292;2023-10-09T03:05:34;99259.56;;;3.03;78.85
69127;BME280;56688;50.234;19.292;2023-10-09T03:08:05;99252.47;;;3.05;79.04
69127;BME280;56688;50.234;19.292;2023-10-09T03:10:32;99243.33;;;3.10;79.01
69127;BME280;56688;50.234;19.292;2023-10-09T03:13:01;99245.60;;;3.15;79.05
69127;BME280;56688;50.234;19.292;2023-10-09T03:15:29;99242.63;;;3.18;78.89
69127;BME280;56688;50.234;19.292;2023-10-09T03:18:03;99238.48;;;3.22;78.97
69127;BME280;56688;50.234;19.292;2023-10-09T03:20:31;99244.73;;;3.25;79.02
69127;BME280;56688;50.234;19.292;2023-10-09T03:22:58;99236.61;;;3.25;78.82
69127;BME280;56688;50.234;19.292;2023-10-09T03:25:29;99236.82;;;3.27;78.90
69127;BME280;56688;50.234;19.292;2023-10-09T03:27:56;99233.08;;;3.32;78.94
69127;BME280;56688;50.234;19.292;2023-10-09T03:30:23;99222.64;;;3.39;79.06
69127;BME280;56688;50.234;19.292;2023-10-09T03:32:52;99224.48;;;3.45;79.05
69127;BME280;56688;50.234;19.292;2023-10-09T03:35:21;99227.20;;;3.50;78.98
69127;BME280;56688;50.234;19.292;2023-10-09T03:37:57;99218.30;;;3.55;78.86
69127;BME280;56688;50.234;19.292;2023-10-09T03:40:27;99211.66;;;3.59;78.72
69127;BME280;56688;50.234;19.292;2023-10-09T03:42:54;99204.70;;;3.60;78.48
69127;BME280;56688;50.234;19.292;2023-10-09T03:45:21;99194.64;;;3.58;78.33
69127;BME280;56688;50.234;19.292;2023-10-09T03:47:53;99183.42;;;3.57;78.54
69127;BME280;56688;50.234;19.292;2023-10-09T03:50:25;99180.65;;;3.59;78.55
69127;BME280;56688;50.234;19.292;2023-10-09T03:53:04;99173.33;;;3.64;78.54
69127;BME280;56688;50.234;19.292;2023-10-09T03:55:35;99176.86;;;3.71;78.80
69127;BME280;56688;50.234;19.292;2023-10-09T03:58:06;99177.21;;;3.77;79.12
69127;BME280;56688;50.234;19.292;2023-10-09T04:00:34;99176.81;;;3.84;79.12
69127;BME280;56688;50.234;19.292;2023-10-09T04:03:13;99179.61;;;3.88;79.54
69127;BME280;56688;50.234;19.292;2023-10-09T04:05:41;99184.31;;;3.91;79.57
69127;BME280;56688;50.234;19.292;2023-10-09T04:08:11;99184.22;;;3.92;79.49
69127;BME280;56688;50.234;19.292;2023-10-09T04:10:47;99177.88;;;3.96;79.61
69127;BME280;56688;50.234;19.292;2023-10-09T04:13:24;99169.30;;;4.00;79.62
69127;BME280;56688;50.234;19.292;2023-10-09T04:16:01;99169.94;;;4.07;79.64
69127;BME280;56688;50.234;19.292;2023-10-09T04:18:36;99168.81;;;4.11;80.08
69127;BME280;56688;50.234;19.292;2023-10-09T04:21:05;99163.85;;;4.20;80.23
69127;BME280;56688;50.234;19.292;2023-10-09T04:23:46;99157.67;;;4.26;79.97
69127;BME280;56688;50.234;19.292;2023-10-09T04:26:28;99153.27;;;4.30;79.62
69127;BME280;56688;50.234;19.292;2023-10-09T04:28:56;99148.44;;;4.33;79.43
69127;BME280;56688;50.234;19.292;2023-10-09T04:31:23;99152.66;;;4.35;79.29
69127;BME280;56688;50.234;19.292;2023-10-09T04:33:59;99146.98;;;4.38;79.22
69127;BME280;56688;50.234;19.292;2023-10-09T04:36:41;99146.45;;;4.44;79.34
69127;BME280;56688;50.234;19.292;2023-10-09T04:39:23;99145.18;;;4.50;79.35
69127;BME280;56688;50.234;19.292;2023-10-09T04:41:58;99137.38;;;4.57;79.42
69127;BME280;56688;50.234;19.292;2023-10-09T04:44:41;99124.95;;;4.61;79.21
69127;BME280;56688;50.234;19.292;2023-10-09T04:47:28;99124.30;;;4.65;78.98
69127;BME280;56688;50.234;19.292;2023-10-09T04:52:38;99113.33;;;4.65;78.54
69127;BME280;56688;50.234;19.292;2023-10-09T04:55:06;99112.39;;;4.68;78.47
69127;BME280;56688;50.234;19.292;2023-10-09T04:57:35;99101.79;;;4.72;78.16
69127;BME280;56688;50.234;19.292;2023-10-09T05:00:15;99105.73;;;4.76;78.19
69127;BME280;56688;50.234;19.292;2023-10-09T05:02:59;99104.05;;;4.78;77.85
69127;BME280;56688;50.234;19.292;2023-10-09T05:05:42;99093.77;;;4.81;77.92
69127;BME280;56688;50.234;19.292;2023-10-09T05:08:12;99084.83;;;4.80;77.64
69127;BME280;56688;50.234;19.292;2023-10-09T05:10:50;99088.40;;;4.78;77.77
69127;BME280;56688;50.234;19.292;2023-10-09T05:13:29;99082.67;;;4.75;78.23
69127;BME280;56688;50.234;19.292;2023-10-09T05:16:13;99072.97;;;4.74;78.70
69127;BME280;56688;50.234;19.292;2023-10-09T05:18:42;99068.09;;;4.76;78.71
69127;BME280;56688;50.234;19.292;2023-10-09T05:21:12;99060.60;;;4.81;78.99
69127;BME280;56688;50.234;19.292;2023-10-09T05:23:40;99058.42;;;4.83;79.31
69127;BME280;56688;50.234;19.292;2023-10-09T05:26:22;99048.98;;;4.84;79.89
69127;BME280;56688;50.234;19.292;2023-10-09T05:29:04;99040.23;;;4.84;80.47
69127;BME280;56688;50.234;19.292;2023-10-09T05:31:46;99040.11;;;4.85;80.95
69127;BME280;56688;50.234;19.292;2023-10-09T05:34:29;99032.36;;;4.89;81.44
69127;BME280;56688;50.234;19.292;2023-10-09T05:37:17;99028.05;;;4.93;82.00
69127;BME280;56688;50.234;19.292;2023-10-09T05:39:44;99023.94;;;4.97;82.51
69127;BME280;56688;50.234;19.292;2023-10-09T05:42:24;99029.60;;;5.03;82.96
69127;BME280;56688;50.234;19.292;2023-10-09T05:45:12;99025.50;;;5.10;83.26
69127;BME280;56688;50.234;19.292;2023-10-09T05:47:54;99016.90;;;5.20;83.82
69127;BME280;56688;50.234;19.292;2023-10-09T05:50:26;99004.21;;;5.29;83.90
69127;BME280;56688;50.234;19.292;2023-10-09T05:52:55;98998.92;;;5.39;83.67
69127;BME280;56688;50.234;19.292;2023-10-09T05:55:23;99006.16;;;5.48;83.66
69127;BME280;56688;50.234;19.292;2023-10-09T05:57:52;99010.59;;;5.59;83.40
69127;BME280;56688;50.234;19.292;2023-10-09T06:00:35;99012.90;;;5.71;83.28
69127;BME280;56688;50.234;19.292;2023-10-09T06:03:17;99020.73;;;5.81;81.92
69127;BME280;56688;50.234;19.292;2023-10-09T06:05:49;99029.37;;;5.91;82.23
69127;BME280;56688;50.234;19.292;2023-10-09T06:08:25;99038.24;;;6.02;81.39
69127;BME280;56688;50.234;19.292;2023-10-09T06:11:08;99037.08;;;6.14;81.36
69127;BME280;56688;50.234;19.292;2023-10-09T06:13:51;99050.42;;;6.26;81.62
69127;BME280;56688;50.234;19.292;2023-10-09T06:16:30;99052.41;;;6.35;80.90
69127;BME280;56688;50.234;19.292;2023-10-09T06:19:13;99053.41;;;6.43;81.07
69127;BME280;56688;50.234;19.292;2023-10-09T06:21:57;99058.69;;;6.52;81.61
69127;BME280;56688;50.234;19.292;2023-10-09T06:24:41;99062.28;;;6.62;81.97
69127;BME280;56688;50.234;19.292;2023-10-09T06:27:10;99064.38;;;6.72;81.63
69127;BME280;56688;50.234;19.292;2023-10-09T06:29:39;99062.00;;;6.80;81.22
69127;BME280;56688;50.234;19.292;2023-10-09T06:32:21;99063.13;;;6.93;81.67
69127;BME280;56688;50.234;19.292;2023-10-09T06:35:02;99065.17;;;7.05;81.79
69127;BME280;56688;50.234;19.292;2023-10-09T06:37:46;99066.29;;;7.13;81.20
69127;BME280;56688;50.234;19.292;2023-10-09T06:43:11;99075.45;;;7.21;80.44
69127;BME280;56688;50.234;19.292;2023-10-09T06:45:55;99074.76;;;7.26;80.04
69127;BME280;56688;50.234;19.292;2023-10-09T06:48:42;99075.84;;;7.31;79.87
69127;BME280;56688;50.234;19.292;2023-10-09T06:51:13;99078.09;;;7.35;80.00
69127;BME280;56688;50.234;19.292;2023-10-09T06:54:00;99081.29;;;7.35;79.29
69127;BME280;56688;50.234;19.292;2023-10-09T06:56:34;99079.71;;;7.26;79.26
69127;BME280;56688;50.234;19.292;2023-10-09T06:59:04;99076.33;;;7.17;79.77
69127;BME280;56688;50.234;19.292;2023-10-09T07:01:41;99066.02;;;7.11;79.80
69127;BME280;56688;50.234;19.292;2023-10-09T07:04:10;99062.36;;;7.07;79.46
69127;BME280;56688;50.234;19.292;2023-10-09T07:06:48;99057.88;;;7.02;79.03
69127;BME280;56688;50.234;19.292;2023-10-09T07:09:15;99064.23;;;6.97;78.43
69127;BME280;56688;50.234;19.292;2023-10-09T07:11:47;99065.89;;;6.92;78.82
69127;BME280;56688;50.234;19.292;2023-10-09T07:14:19;99065.29;;;6.86;78.52
69127;BME280;56688;50.234;19.292;2023-10-09T07:17:04;99066.27;;;6.81;78.83
69127;BME280;56688;50.234;19.292;2023-10-09T07:19:43;99060.94;;;6.80;79.01
69127;BME280;56688;50.234;19.292;2023-10-09T07:22:11;99056.36;;;6.80;79.04
69127;BME280;56688;50.234;19.292;2023-10-09T07:24:54;99052.30;;;6.78;79.29
69127;BME280;56688;50.234;19.292;2023-10-09T07:27:26;99057.46;;;6.76;79.52
69127;BME280;56688;50.234;19.292;2023-10-09T07:30:11;99061.56;;;6.74;80.06
69127;BME280;56688;50.234;19.292;2023-10-09T07:32:57;99052.80;;;6.73;79.87
69127;BME280;56688;50.234;19.292;2023-10-09T07:38:12;99037.44;;;6.74;80.00
69127;BME280;56688;50.234;19.292;2023-10-09T07:40:41;99032.80;;;6.76;80.51
69127;BME280;56688;50.234;19.292;2023-10-09T07:43:24;99031.30;;;6.81;80.74
69127;BME280;56688;50.234;19.292;2023-10-09T07:45:55;99036.31;;;6.82;80.41
69127;BME280;56688;50.234;19.292;2023-10-09T07:48:26;99042.11;;;6.80;80.33
69127;BME280;56688;50.234;19.292;2023-10-09T07:50:53;99045.21;;;6.81;80.59
69127;BME280;56688;50.234;19.292;2023-10-09T07:53:32;99049.47;;;6.83;80.00
69127;BME280;56688;50.234;19.292;2023-10-09T07:56:11;99052.39;;;6.88;80.13
69127;BME280;56688;50.234;19.292;2023-10-09T07:58:40;99055.08;;;6.89;79.99
69127;BME280;56688;50.234;19.292;2023-10-09T08:01:15;99053.32;;;6.89;80.03
69127;BME280;56688;50.234;19.292;2023-10-09T08:03:43;99045.71;;;6.90;79.86
69127;BME280;56688;50.234;19.292;2023-10-09T08:06:16;99041.45;;;6.87;79.95
69127;BME280;56688;50.234;19.292;2023-10-09T08:08:59;99035.86;;;6.88;80.14
69127;BME280;56688;50.234;19.292;2023-10-09T08:11:49;99020.26;;;6.92;79.98
69127;BME280;56688;50.234;19.292;2023-10-09T08:14:31;99008.50;;;6.96;80.22
69127;BME280;56688;50.234;19.292;2023-10-09T08:17:02;99008.27;;;7.00;80.50
69127;BME280;56688;50.234;19.292;2023-10-09T08:19:49;99004.33;;;7.01;80.14
69127;BME280;56688;50.234;19.292;2023-10-09T08:22:27;98998.63;;;7.01;80.37
69127;BME280;56688;50.234;19.292;2023-10-09T08:24:55;98994.20;;;7.06;81.08
69127;BME280;56688;50.234;19.292;2023-10-09T08:29:59;98980.32;;;7.28;81.62
69127;BME280;56688;50.234;19.292;2023-10-09T08:32:41;98967.14;;;7.44;81.09
69127;BME280;56688;50.234;19.292;2023-10-09T08:35:12;98952.27;;;7.58;81.26
69127;BME280;56688;50.234;19.292;2023-10-09T08:38:02;98945.51;;;7.75;80.95
69127;BME280;56688;50.234;19.292;2023-10-09T08:40:37;98942.38;;;7.95;80.10
69127;BME280;56688;50.234;19.292;2023-10-09T08:45:38;98932.38;;;8.47;79.51
69127;BME280;56688;50.234;19.292;2023-10-09T08:48:08;98930.37;;;8.69;78.25
69127;BME280;56688;50.234;19.292;2023-10-09T08:50:39;98912.89;;;8.80;76.95
69127;BME280;56688;50.234;19.292;2023-10-09T08:53:08;98901.30;;;8.87;76.84
69127;BME280;56688;50.234;19.292;2023-10-09T08:55:37;98890.02;;;8.89;76.19
69127;BME280;56688;50.234;19.292;2023-10-09T08:58:06;98890.00;;;8.93;75.36
69127;BME280;56688;50.234;19.292;2023-10-09T09:00:42;98895.83;;;8.95;74.42
69127;BME280;56688;50.234;19.292;2023-10-09T09:03:15;98890.91;;;8.92;74.19
69127;BME280;56688;50.234;19.292;2023-10-09T09:05:46;98888.91;;;8.93;74.47
69127;BME280;56688;50.234;19.292;2023-10-09T09:08:32;98885.73;;;8.93;75.03
69127;BME280;56688;50.234;19.292;2023-10-09T09:11:07;98887.64;;;8.89;74.84
69127;BME280;56688;50.234;19.292;2023-10-09T09:13:46;98886.23;;;8.86;74.25
69127;BME280;56688;50.234;19.292;2023-10-09T09:21:18;98880.45;;;8.77;74.30
69127;BME280;56688;50.234;19.292;2023-10-09T09:23:58;98878.75;;;8.79;74.85
69127;BME280;56688;50.234;19.292;2023-10-09T09:26:43;98868.23;;;8.82;74.82
69127;BME280;56688;50.234;19.292;2023-10-09T09:29:14;98859.23;;;8.83;75.11
69127;BME280;56688;50.234;19.292;2023-10-09T09:31:54;98856.19;;;8.88;75.49
69127;BME280;56688;50.234;19.292;2023-10-09T09:34:22;98849.34;;;8.91;75.57
69127;BME280;56688;50.234;19.292;2023-10-09T09:39:40;98849.33;;;8.99;74.94
69127;BME280;56688;50.234;19.292;2023-10-09T09:42:22;98838.80;;;9.02;74.67
69127;BME280;56688;50.234;19.292;2023-10-09T09:44:55;98837.91;;;9.02;74.14
69127;BME280;56688;50.234;19.292;2023-10-09T09:47:22;98835.65;;;9.02;74.45
69127;BME280;56688;50.234;19.292;2023-10-09T09:49:54;98835.59;;;9.01;74.72
69127;BME280;56688;50.234;19.292;2023-10-09T09:52:38;98824.85;;;9.02;75.04
69127;BME280;56688;50.234;19.292;2023-10-09T09:55:08;98828.21;;;9.03;74.89
69127;BME280;56688;50.234;19.292;2023-10-09T09:57:44;98822.13;;;9.06;74.92
69127;BME280;56688;50.234;19.292;2023-10-09T10:00:13;98818.48;;;9.06;74.36
69127;BME280;56688;50.234;19.292;2023-10-09T10:03:01;98816.77;;;9.02;74.91
69127;BME280;56688;50.234;19.292;2023-10-09T10:05:33;98818.76;;;9.03;75.14
69127;BME280;56688;50.234;19.292;2023-10-09T10:08:02;98818.89;;;9.02;75.06
69127;BME280;56688;50.234;19.292;2023-10-09T10:10:40;98824.08;;;9.04;75.61
69127;BME280;56688;50.234;19.292;2023-10-09T10:21:34;98830.56;;;8.82;73.88
69127;BME280;56688;50.234;19.292;2023-10-09T10:32:56;98806.02;;;8.47;75.89
69127;BME280;56688;50.234;19.292;2023-10-09T10:35:24;98808.55;;;8.43;76.35
69127;BME280;56688;50.234;19.292;2023-10-09T10:41:10;98799.55;;;8.51;77.51
69127;BME280;56688;50.234;19.292;2023-10-09T10:43:40;98797.33;;;8.50;76.95
69127;BME280;56688;50.234;19.292;2023-10-09T10:46:15;98791.41;;;8.54;77.21
69127;BME280;56688;50.234;19.292;2023-10-09T10:49:05;98792.46;;;8.56;77.45
69127;BME280;56688;50.234;19.292;2023-10-09T10:51:49;98779.79;;;8.59;77.97
69127;BME280;56688;50.234;19.292;2023-10-09T10:54:21;98777.04;;;8.63;78.00
69127;BME280;56688;50.234;19.292;2023-10-09T10:56:56;98762.42;;;8.64;78.31
69127;BME280;56688;50.234;19.292;2023-10-09T10:59:24;98750.20;;;8.65;78.48
69127;BME280;56688;50.234;19.292;2023-10-09T11:01:56;98746.71;;;8.63;78.18
69127;BME280;56688;50.234;19.292;2023-10-09T11:04:40;98743.98;;;8.62;78.06
69127;BME280;56688;50.234;19.292;2023-10-09T11:07:10;98738.17;;;8.55;77.84
69127;BME280;56688;50.234;19.292;2023-10-09T11:09:55;98733.66;;;8.53;78.15
69127;BME280;56688;50.234;19.292;2023-10-09T11:12:37;98721.27;;;8.48;78.09
69127;BME280;56688;50.234;19.292;2023-10-09T11:15:13;98710.50;;;8.42;78.16
69127;BME280;56688;50.234;19.292;2023-10-09T11:18:04;98697.15;;;8.41;78.57
69127;BME280;56688;50.234;19.292;2023-10-09T11:20:35;98699.79;;;8.40;78.62
69127;BME280;56688;50.234;19.292;2023-10-09T11:23:03;98705.50;;;8.36;79.25
69127;BME280;56688;50.234;19.292;2023-10-09T11:25:43;98698.86;;;8.35;79.21
69127;BME280;56688;50.234;19.292;2023-10-09T11:28:20;98698.73;;;8.30;79.09
69127;BME280;56688;50.234;19.292;2023-10-09T11:31:10;98700.52;;;8.28;79.37
69127;BME280;56688;50.234;19.292;2023-10-09T11:33:54;98696.19;;;8.25;79.48
69127;BME280;56688;50.234;19.292;2023-10-09T11:36:21;98693.73;;;8.22;79.48
69127;BME280;56688;50.234;19.292;2023-10-09T11:39:00;98697.66;;;8.18;79.85
69127;BME280;56688;50.234;19.292;2023-10-09T11:41:43;98694.34;;;8.18;79.71
69127;BME280;56688;50.234;19.292;2023-10-09T11:44:11;98691.67;;;8.16;80.02
69127;BME280;56688;50.234;19.292;2023-10-09T11:47:01;98687.83;;;8.16;80.15
69127;BME280;56688;50.234;19.292;2023-10-09T11:49:59;98679.97;;;8.15;80.38
69127;BME280;56688;50.234;19.292;2023-10-09T11:52:29;98674.55;;;8.16;80.44
69127;BME280;56688;50.234;19.292;2023-10-09T11:55:11;98669.87;;;8.15;80.71
69127;BME280;56688;50.234;19.292;2023-10-09T11:57:41;98667.73;;;8.15;80.99
69127;BME280;56688;50.234;19.292;2023-10-09T12:00:09;98666.42;;;8.17;80.77
69127;BME280;56688;50.234;19.292;2023-10-09T12:02:55;98669.86;;;8.16;81.00
69127;BME280;56688;50.234;19.292;2023-10-09T12:05:23;98676.56;;;8.18;81.01
69127;BME280;56688;50.234;19.292;2023-10-09T12:07:55;98677.16;;;8.21;80.97
69127;BME280;56688;50.234;19.292;2023-10-09T12:10:24;98676.14;;;8.22;80.70
69127;BME280;56688;50.234;19.292;2023-10-09T12:12:53;98679.31;;;8.25;80.49
69127;BME280;56688;50.234;19.292;2023-10-09T12:15:20;98683.47;;;8.26;80.32
69127;BME280;56688;50.234;19.292;2023-10-09T12:17:47;98674.02;;;8.27;80.37
69127;BME280;56688;50.234;19.292;2023-10-09T12:20:14;98675.80;;;8.24;80.17
69127;BME280;56688;50.234;19.292;2023-10-09T12:22:59;98673.95;;;8.16;80.01
69127;BME280;56688;50.234;19.292;2023-10-09T12:25:26;98671.17;;;8.13;80.13
69127;BME280;56688;50.234;19.292;2023-10-09T12:27:59;98669.79;;;8.10;80.18
69127;BME280;56688;50.234;19.292;2023-10-09T12:30:28;98672.52;;;8.10;80.42
69127;BME280;56688;50.234;19.292;2023-10-09T12:32:57;98666.66;;;8.11;80.49
69127;BME280;56688;50.234;19.292;2023-10-09T12:35:25;98666.17;;;8.13;80.40
69127;BME280;56688;50.234;19.292;2023-10-09T12:37:52;98667.56;;;8.12;80.28
69127;BME280;56688;50.234;19.292;2023-10-09T12:40:22;98661.70;;;8.09;80.33
69127;BME280;56688;50.234;19.292;2023-10-09T12:42:56;98658.55;;;8.09;80.60
69127;BME280;56688;50.234;19.292;2023-10-09T12:45:26;98655.52;;;8.11;80.57
69127;BME280;56688;50.234;19.292;2023-10-09T12:47:54;98657.02;;;8.14;80.60
69127;BME280;56688;50.234;19.292;2023-10-09T12:50:26;98666.12;;;8.18;80.97
69127;BME280;56688;50.234;19.292;2023-10-09T12:52:57;98672.41;;;8.24;80.85
69127;BME280;56688;50.234;19.292;2023-10-09T12:55:28;98669.77;;;8.25;80.64
69127;BME280;56688;50.234;19.292;2023-10-09T12:58:00;98669.86;;;8.27;80.85
69127;BME280;56688;50.234;19.292;2023-10-09T13:00:34;98664.73;;;8.27;80.54
69127;BME280;56688;50.234;19.292;2023-10-09T13:03:06;98666.45;;;8.25;80.44
69127;BME280;56688;50.234;19.292;2023-10-09T13:08:24;98673.73;;;8.32;81.05
69127;BME280;56688;50.234;19.292;2023-10-09T13:11:03;98674.73;;;8.40;81.23
69127;BME280;56688;50.234;19.292;2023-10-09T13:13:39;98669.46;;;8.43;80.81
69127;BME280;56688;50.234;19.292;2023-10-09T13:16:08;98660.08;;;8.44;80.82
69127;BME280;56688;50.234;19.292;2023-10-09T13:18:40;98654.33;;;8.45;80.80
69127;BME280;56688;50.234;19.292;2023-10-09T13:21:07;98653.86;;;8.46;80.44
69127;BME280;56688;50.234;19.292;2023-10-09T13:23:34;98648.39;;;8.47;80.45
69127;BME280;56688;50.234;19.292;2023-10-09T13:26:15;98639.16;;;8.52;80.41
69127;BME280;56688;50.234;19.292;2023-10-09T13:28:48;98632.56;;;8.53;80.27
69127;BME280;56688;50.234;19.292;2023-10-09T13:31:17;98624.24;;;8.52;80.12
69127;BME280;56688;50.234;19.292;2023-10-09T13:33:44;98621.16;;;8.46;79.87
69127;BME280;56688;50.234;19.292;2023-10-09T13:36:13;98612.13;;;8.41;80.10
69127;BME280;56688;50.234;19.292;2023-10-09T13:38:46;98612.34;;;8.39;80.48
69127;BME280;56688;50.234;19.292;2023-10-09T13:41:13;98609.23;;;8.42;80.83
69127;BME280;56688;50.234;19.292;2023-10-09T13:43:46;98611.48;;;8.44;80.61
69127;BME280;56688;50.234;19.292;2023-10-09T13:46:13;98611.29;;;8.46;80.86
69127;BME280;56688;50.234;19.292;2023-10-09T13:48:44;98615.42;;;8.48;80.88
69127;BME280;56688;50.234;19.292;2023-10-09T13:51:12;98620.90;;;8.47;80.62
69127;BME280;56688;50.234;19.292;2023-10-09T13:53:45;98616.42;;;8.42;80.37
69127;BME280;56688;50.234;19.292;2023-10-09T13:56:18;98624.00;;;8.43;80.59
69127;BME280;56688;50.234;19.292;2023-10-09T14:01:13;98629.65;;;8.46;80.74
69127;BME280;56688;50.234;19.292;2023-10-09T14:03:56;98629.27;;;8.51;81.15
69127;BME280;56688;50.234;19.292;2023-10-09T14:06:27;98624.02;;;8.55;81.19
69127;BME280;56688;50.234;19.292;2023-10-09T14:08:58;98621.32;;;8.57;80.84
69127;BME280;56688;50.234;19.292;2023-10-09T14:11:26;98618.92;;;8.53;80.57
69127;BME280;56688;50.234;19.292;2023-10-09T14:13:54;98617.20;;;8.53;80.71
69127;BME280;56688;50.234;19.292;2023-10-09T14:16:36;98611.76;;;8.54;80.71
69127;BME280;56688;50.234;19.292;2023-10-09T14:19:03;98604.91;;;8.58;80.84
69127;BME280;56688;50.234;19.292;2023-10-09T14:21:34;98590.73;;;8.61;81.16
69127;BME280;56688;50.234;19.292;2023-10-09T14:24:04;98589.13;;;8.64;81.13
69127;BME280;56688;50.234;19.292;2023-10-09T14:26:45;98594.64;;;8.62;80.78